createdAt,value
2019-01-21T00:00:56.837Z,74.73
2019-01-21T00:02:01.073Z,74.89
2019-01-21T00:03:05.482Z,74.57
2019-01-21T00:04:09.774Z,74.89
2019-01-21T00:05:14.101Z,74.68
2019-01-21T00:06:18.414Z,74.92
2019-01-21T00:07:22.738Z,74.66
2019-01-21T00:08:27.001Z,74.61
2019-01-21T00:09:31.207Z,74.66
2019-01-21T00:10:35.500Z,75.07
2019-01-21T00:11:39.827Z,74.83
2019-01-21T00:12:44.083Z,74.69
2019-01-21T00:13:48.330Z,74.58
2019-01-21T00:14:52.671Z,74.66
2019-01-21T00:15:57.003Z,74.63
2019-01-21T00:17:01.147Z,74.78
2019-01-21T00:18:05.796Z,74.67
2019-01-21T00:19:10.127Z,74.68
2019-01-21T00:20:14.364Z,74.74
2019-01-21T00:21:18.994Z,74.59
2019-01-21T00:22:23.199Z,74.80
2019-01-21T00:23:27.525Z,74.78
2019-01-21T00:24:31.926Z,74.67
2019-01-21T00:25:36.212Z,74.70
2019-01-21T00:26:40.457Z,74.77
2019-01-21T00:27:44.659Z,74.63
2019-01-21T00:28:49.018Z,75.00
2019-01-21T00:29:53.388Z,74.49
2019-01-21T00:30:57.565Z,75.06
2019-01-21T00:32:01.900Z,74.91
2019-01-21T00:33:06.637Z,74.58
2019-01-21T00:34:10.963Z,74.45
2019-01-21T00:35:15.308Z,74.51
2019-01-21T00:36:19.538Z,74.80
2019-01-21T00:37:23.836Z,74.85
2019-01-21T00:38:28.089Z,74.55
2019-01-21T00:39:32.292Z,74.55
2019-01-21T00:40:36.534Z,74.49
2019-01-21T00:41:40.915Z,74.73
2019-01-21T00:42:45.050Z,74.55
2019-01-21T00:43:49.522Z,74.55
2019-01-21T00:44:53.744Z,75.01
2019-01-21T00:45:58.003Z,74.54
2019-01-21T00:47:02.315Z,75.01
2019-01-21T00:48:06.628Z,74.96
2019-01-21T00:49:10.801Z,74.72
2019-01-21T00:50:15.208Z,74.75
2019-01-21T00:51:19.428Z,74.65
2019-01-21T00:52:23.659Z,74.72
2019-01-21T00:53:27.936Z,74.41
2019-01-21T00:54:32.257Z,74.41
2019-01-21T00:55:36.605Z,74.87
2019-01-21T00:56:40.671Z,74.95
2019-01-21T00:57:44.888Z,74.31
2019-01-21T00:58:49.095Z,74.81
2019-01-21T00:59:53.217Z,74.82
2019-01-21T01:00:57.563Z,74.70
2019-01-21T01:02:01.904Z,74.76
2019-01-21T01:03:06.157Z,74.40
2019-01-21T01:04:10.324Z,74.38
2019-01-21T01:05:14.740Z,74.28
2019-01-21T01:06:19.080Z,74.80
2019-01-21T01:07:23.377Z,74.22
2019-01-21T01:08:27.591Z,74.74
2019-01-21T01:09:31.979Z,74.49
2019-01-21T01:10:36.293Z,74.30
2019-01-21T01:11:40.596Z,74.50
2019-01-21T01:12:44.869Z,74.90
2019-01-21T01:13:49.079Z,74.44
2019-01-21T01:14:53.273Z,74.77
2019-01-21T01:15:57.714Z,74.90
2019-01-21T01:17:01.920Z,74.54
2019-01-21T01:18:06.193Z,74.90
2019-01-21T01:19:10.555Z,74.79
2019-01-21T01:20:16.784Z,74.97
2019-01-21T01:21:21.107Z,74.87
2019-01-21T01:22:25.201Z,74.85
2019-01-21T01:23:29.464Z,74.47
2019-01-21T01:24:33.711Z,74.54
2019-01-21T01:25:38.022Z,75.05
2019-01-21T01:26:42.241Z,74.64
2019-01-21T01:27:46.442Z,74.46
2019-01-21T01:28:50.449Z,74.85
2019-01-21T01:29:54.763Z,74.67
2019-01-21T01:30:59.054Z,74.53
2019-01-21T01:32:03.378Z,75.05
2019-01-21T01:33:07.669Z,74.58
2019-01-21T01:34:11.760Z,74.74
2019-01-21T01:35:16.774Z,75.00
2019-01-21T01:36:21.117Z,74.48
2019-01-21T01:37:25.447Z,75.13
2019-01-21T01:38:29.715Z,74.09
2019-01-21T01:39:33.886Z,74.52
2019-01-21T01:40:38.268Z,74.92
2019-01-21T01:41:42.627Z,74.59
2019-01-21T01:42:47.071Z,75.12
2019-01-21T01:43:51.391Z,74.82
2019-01-21T01:44:55.671Z,74.59
2019-01-21T01:45:59.962Z,74.79
2019-01-21T01:47:04.302Z,74.73
2019-01-21T01:48:08.556Z,75.20
2019-01-21T01:49:12.877Z,75.01
2019-01-21T01:50:17.082Z,75.17
2019-01-21T01:51:21.379Z,74.87
2019-01-21T01:52:25.725Z,75.04
2019-01-21T01:53:30.072Z,74.98
2019-01-21T01:54:34.327Z,74.65
2019-01-21T01:55:38.687Z,74.44
2019-01-21T01:56:43.141Z,75.00
2019-01-21T01:57:47.574Z,75.15
2019-01-21T01:58:51.841Z,74.98
2019-01-21T01:59:56.083Z,74.71
2019-01-21T02:01:00.272Z,74.76
2019-01-21T02:02:04.488Z,74.85
2019-01-21T02:03:08.801Z,75.12
2019-01-21T02:04:13.152Z,75.31
2019-01-21T02:05:17.412Z,75.18
2019-01-21T02:06:21.667Z,75.31
2019-01-21T02:07:25.938Z,75.25
2019-01-21T02:08:30.189Z,74.84
2019-01-21T02:09:34.437Z,75.17
2019-01-21T02:10:38.639Z,74.90
2019-01-21T02:11:42.846Z,74.12
2019-01-21T02:12:47.091Z,75.13
2019-01-21T02:13:51.381Z,74.70
2019-01-21T02:14:55.765Z,74.80
2019-01-21T02:16:00.016Z,73.95
2019-01-21T02:17:04.370Z,74.66
2019-01-21T02:18:08.839Z,74.64
2019-01-21T02:19:13.122Z,74.92
2019-01-21T02:20:17.545Z,74.72
2019-01-21T02:21:21.803Z,74.96
2019-01-21T02:22:27.899Z,74.06
2019-01-21T02:23:36.038Z,74.95
2019-01-21T02:24:42.031Z,74.85
2019-01-21T02:25:51.958Z,74.74
2019-01-21T02:27:04.191Z,74.84
2019-01-21T02:29:19.867Z,74.92
2019-01-21T02:30:37.283Z,74.78
2019-01-21T02:34:54.664Z,74.78
2019-01-21T02:36:13.209Z,74.27
2019-01-21T02:37:29.982Z,75.00
2019-01-21T02:38:54.847Z,74.55
2019-01-21T02:40:13.299Z,74.94
2019-01-21T02:41:30.976Z,74.59
2019-01-21T02:42:44.552Z,74.68
2019-01-21T02:44:06.559Z,74.31
2019-01-21T02:45:50.045Z,74.29
2019-01-21T02:47:07.820Z,74.57
2019-01-21T02:48:21.839Z,74.56
2019-01-21T02:49:54.107Z,74.84
2019-01-21T02:51:15.933Z,74.76
2019-01-21T02:54:44.371Z,74.98
2019-01-21T02:56:22.262Z,74.67
2019-01-21T02:57:42.751Z,75.09
2019-01-21T02:59:17.486Z,75.05
2019-01-21T03:00:32.716Z,75.29
2019-01-21T03:01:49.403Z,75.00
2019-01-21T03:04:09.315Z,75.16
2019-01-21T03:05:25.924Z,75.24
2019-01-21T03:07:49.560Z,74.86
2019-01-21T03:10:23.470Z,74.96
2019-01-21T03:11:38.191Z,75.22
2019-01-21T03:13:29.323Z,75.36
2019-01-21T03:15:43.569Z,74.96
2019-01-21T03:16:58.298Z,75.08
2019-01-21T03:19:15.918Z,75.37
2019-01-21T03:20:30.099Z,74.97
2019-01-21T03:21:47.022Z,74.79
2019-01-21T03:24:13.371Z,75.17
2019-01-21T03:25:46.550Z,75.13
2019-01-21T03:27:06.902Z,74.53
2019-01-21T03:28:21.474Z,74.73
2019-01-21T03:29:40.068Z,75.03
2019-01-21T03:32:59.991Z,74.57
2019-01-21T03:35:12.520Z,74.43
2019-01-21T03:36:33.980Z,74.47
2019-01-21T03:37:51.555Z,74.87
2019-01-21T03:39:24.574Z,74.35
2019-01-21T03:40:49.460Z,74.49
2019-01-21T03:42:14.762Z,74.79
2019-01-21T03:43:42.244Z,74.78
2019-01-21T03:46:07.842Z,74.28
2019-01-21T03:47:26.896Z,74.74
2019-01-21T03:48:37.559Z,74.57
2019-01-21T03:50:50.631Z,74.49
2019-01-21T03:52:43.722Z,74.16
2019-01-21T03:53:56.968Z,74.52
2019-01-21T03:55:05.856Z,74.39
2019-01-21T03:56:15.487Z,74.12
2019-01-21T03:57:31.754Z,74.39
2019-01-21T03:58:46.105Z,74.04
2019-01-21T04:01:03.326Z,74.22
2019-01-21T04:02:25.922Z,74.24
2019-01-21T04:03:55.715Z,74.17
2019-01-21T04:06:18.428Z,73.85
2019-01-21T04:07:35.563Z,73.87
2019-01-21T04:08:55.464Z,73.69
2019-01-21T04:10:12.358Z,73.69
2019-01-21T04:11:45.485Z,73.92
2019-01-21T04:13:04.869Z,73.77
2019-01-21T04:14:32.529Z,73.92
2019-01-21T04:15:52.379Z,73.95
2019-01-21T04:17:20.973Z,74.00
2019-01-21T04:20:38.969Z,73.68
2019-01-21T04:22:10.751Z,73.54
2019-01-21T04:24:09.978Z,73.37
2019-01-21T04:25:40.359Z,73.57
2019-01-21T04:27:53.454Z,73.19
2019-01-21T04:30:05.685Z,73.44
2019-01-21T04:31:22.650Z,73.14
2019-01-21T04:32:59.467Z,73.35
2019-01-21T04:34:47.961Z,73.26
2019-01-21T04:36:03.487Z,73.28
2019-01-21T04:37:21.402Z,73.30
2019-01-21T04:38:39.867Z,73.03
2019-01-21T04:39:50.383Z,73.00
2019-01-21T04:41:06.441Z,73.04
2019-01-21T04:42:51.476Z,73.48
2019-01-21T04:46:11.377Z,73.08
2019-01-21T04:47:25.845Z,73.41
2019-01-21T04:48:54.802Z,73.12
2019-01-21T04:50:10.739Z,73.13
2019-01-21T04:51:34.039Z,73.51
2019-01-21T04:54:52.960Z,73.47
2019-01-21T04:58:10.749Z,73.43
2019-01-21T05:00:27.574Z,73.22
2019-01-21T05:01:47.157Z,73.10
2019-01-21T05:03:34.944Z,73.05
2019-01-21T05:07:28.585Z,73.14
2019-01-21T05:08:54.233Z,73.44
2019-01-21T05:10:29.230Z,73.18
2019-01-21T05:11:51.711Z,73.28
2019-01-21T05:14:10.570Z,73.54
2019-01-21T05:16:27.994Z,73.45
2019-01-21T05:17:43.716Z,73.45
2019-01-21T05:20:09.589Z,73.29
2019-01-21T05:23:34.055Z,73.37
2019-01-21T05:27:00.108Z,73.45
2019-01-21T05:28:28.735Z,73.54
2019-01-21T05:29:43.702Z,73.12
2019-01-21T05:31:07.419Z,73.38
2019-01-21T05:32:29.139Z,73.31
2019-01-21T05:34:14.859Z,73.37
2019-01-21T05:36:38.234Z,73.41
2019-01-21T05:38:56.581Z,73.43
2019-01-21T05:42:16.240Z,73.10
2019-01-21T05:44:47.868Z,73.05
2019-01-21T05:48:07.086Z,73.61
2019-01-21T05:49:31.819Z,73.52
2019-01-21T05:50:53.845Z,73.32
2019-01-21T05:54:28.314Z,73.46
2019-01-21T05:57:52.681Z,73.55
2019-01-21T05:59:08.337Z,73.27
2019-01-21T06:01:22.266Z,73.38
2019-01-21T06:03:35.855Z,73.17
2019-01-21T06:06:53.237Z,73.61
2019-01-21T06:10:18.354Z,73.46
2019-01-21T06:11:34.050Z,73.53
2019-01-21T06:13:58.049Z,73.50
2019-01-21T06:15:31.947Z,73.39
2019-01-21T06:18:57.107Z,73.66
2019-01-21T06:20:22.391Z,73.44
2019-01-21T06:23:47.924Z,73.63
2019-01-21T06:25:01.438Z,73.37
2019-01-21T06:26:21.908Z,73.61
2019-01-21T06:30:48.707Z,73.52
2019-01-21T06:32:03.235Z,73.38
2019-01-21T06:35:57.736Z,73.28
2019-01-21T06:37:19.013Z,73.46
2019-01-21T06:39:43.902Z,73.29
2019-01-21T06:41:04.794Z,73.19
2019-01-21T06:43:29.489Z,73.63
2019-01-21T06:44:47.227Z,73.28
2019-01-21T06:46:10.116Z,73.14
2019-01-21T06:47:45.041Z,73.35
2019-01-21T06:51:02.835Z,73.13
2019-01-21T06:52:17.474Z,73.11
2019-01-21T06:54:03.564Z,73.02
2019-01-21T06:55:17.946Z,73.32
2019-01-21T06:56:36.712Z,73.52
2019-01-21T06:58:37.048Z,73.30
2019-01-21T07:00:07.025Z,73.22
2019-01-21T07:02:20.935Z,73.28
2019-01-21T07:05:42.816Z,73.25
2019-01-21T07:08:05.766Z,73.24
2019-01-21T07:09:19.442Z,73.32
2019-01-21T07:10:30.471Z,73.13
2019-01-21T07:11:49.832Z,73.38
2019-01-21T07:13:05.519Z,73.03
2019-01-21T07:14:33.432Z,73.23
2019-01-21T07:15:58.202Z,73.18
2019-01-21T07:17:12.641Z,73.09
2019-01-21T07:18:34.793Z,73.45
2019-01-21T07:19:59.609Z,72.99
2019-01-21T07:21:19.238Z,72.95
2019-01-21T07:22:38.792Z,73.45
2019-01-21T07:25:06.913Z,73.27
2019-01-21T07:27:22.191Z,73.04
2019-01-21T07:29:38.842Z,73.33
2019-01-21T07:31:30.383Z,73.14
2019-01-21T07:33:47.907Z,73.08
2019-01-21T07:35:09.450Z,73.25
2019-01-21T07:36:37.615Z,73.18
2019-01-21T07:37:58.018Z,72.83
2019-01-21T07:40:16.692Z,72.77
2019-01-21T07:43:35.908Z,72.76
2019-01-21T07:44:54.015Z,72.70
2019-01-21T07:46:17.105Z,72.71
2019-01-21T07:47:33.087Z,72.68
2019-01-21T07:48:58.975Z,73.04
2019-01-21T07:50:18.320Z,72.77
2019-01-21T07:53:35.780Z,72.70
2019-01-21T07:54:52.522Z,72.69
2019-01-21T07:58:20.162Z,72.57
2019-01-21T08:00:06.250Z,72.86
2019-01-21T08:01:19.160Z,72.95
2019-01-21T08:47:09.462Z,72.33
2019-01-21T08:50:33.179Z,69.50
2019-01-21T08:53:50.404Z,69.61
2019-01-21T08:57:07.999Z,70.93
2019-01-21T09:00:28.170Z,72.64
2019-01-21T09:02:14.491Z,73.32
2019-01-21T09:03:34.132Z,73.33
2019-01-21T09:06:53.707Z,72.92
2019-01-21T09:10:15.617Z,73.15
2019-01-21T09:12:30.329Z,71.79
2019-01-21T09:13:59.416Z,72.11
2019-01-21T09:15:30.194Z,72.70
2019-01-21T09:16:59.967Z,72.39
2019-01-21T09:18:49.086Z,72.52
2019-01-21T09:20:10.634Z,72.99
2019-01-21T09:21:56.547Z,73.03
2019-01-21T09:23:12.794Z,72.74
2019-01-21T09:24:57.859Z,72.97
2019-01-21T09:26:16.853Z,72.97
2019-01-21T09:27:30.820Z,73.19
2019-01-21T09:28:46.463Z,72.88
2019-01-21T09:29:59.840Z,72.64
2019-01-21T09:32:13.439Z,73.11
2019-01-21T09:33:35.037Z,72.93
2019-01-21T09:36:59.071Z,72.45
2019-01-21T09:39:21.589Z,72.62
2019-01-21T09:41:39.216Z,72.70
2019-01-21T09:42:59.544Z,72.64
2019-01-21T09:45:17.311Z,72.31
2019-01-21T09:46:39.864Z,69.47
2019-01-21T09:47:42.439Z,70.37
2019-01-21T09:48:45.029Z,70.67
2019-01-21T09:49:49.348Z,71.03
2019-01-21T09:50:53.752Z,70.02
2019-01-21T09:52:05.588Z,70.48
2019-01-21T09:53:09.899Z,70.95
2019-01-21T09:54:14.074Z,71.82
2019-01-21T09:55:18.408Z,72.34
2019-01-21T09:56:22.674Z,71.61
2019-01-21T09:57:27.751Z,71.08
2019-01-21T09:58:32.315Z,69.97
2019-01-21T09:59:36.671Z,71.86
2019-01-21T10:00:40.939Z,71.50
2019-01-21T10:01:45.539Z,72.37
2019-01-21T10:02:50.336Z,69.20
2019-01-21T10:03:54.553Z,70.05
2019-01-21T10:05:03.340Z,69.85
2019-01-21T10:06:09.790Z,68.74
2019-01-21T10:07:19.741Z,68.64
2019-01-21T10:08:43.082Z,69.13
2019-01-21T10:10:00.268Z,68.32
2019-01-21T10:11:20.838Z,71.05
2019-01-21T10:14:41.191Z,71.58
2019-01-21T10:16:11.272Z,71.73
2019-01-21T10:17:29.268Z,71.79
2019-01-21T10:18:43.356Z,72.26
2019-01-21T10:20:01.398Z,72.10
2019-01-21T10:21:20.186Z,72.35
2019-01-21T10:23:50.153Z,72.49
2019-01-21T10:27:10.578Z,70.12
2019-01-21T10:28:31.858Z,69.78
2019-01-21T10:29:59.052Z,71.15
2019-01-21T10:33:25.654Z,70.80
2019-01-21T10:35:00.192Z,71.12
2019-01-21T10:36:17.575Z,70.97
2019-01-21T10:37:38.263Z,71.36
2019-01-21T10:39:01.367Z,71.53
2019-01-21T10:40:32.380Z,70.91
2019-01-21T10:41:54.196Z,71.45
2019-01-21T10:43:24.123Z,69.07
2019-01-21T10:45:09.622Z,70.54
2019-01-21T10:46:29.579Z,69.26
2019-01-21T10:47:42.283Z,70.30
2019-01-21T10:51:01.253Z,70.11
2019-01-21T10:52:24.924Z,70.77
2019-01-21T10:53:42.213Z,70.81
2019-01-21T10:57:04.864Z,70.79
2019-01-21T10:58:28.057Z,70.45
2019-01-21T10:59:46.824Z,70.23
2019-01-21T11:01:10.379Z,70.39
2019-01-21T11:02:30.415Z,70.44
2019-01-21T11:04:43.226Z,70.38
2019-01-21T11:06:58.090Z,69.89
2019-01-21T11:08:11.662Z,69.89
2019-01-21T11:09:26.738Z,70.07
2019-01-21T11:10:37.168Z,70.49
2019-01-21T11:11:54.051Z,69.72
2019-01-21T11:13:10.673Z,70.05
2019-01-21T11:16:29.434Z,69.96
2019-01-21T11:18:52.811Z,69.80
2019-01-21T11:20:06.692Z,69.83
2019-01-21T11:21:33.646Z,69.93
2019-01-21T11:22:47.697Z,69.42
2019-01-21T11:24:25.128Z,69.85
2019-01-21T11:25:45.022Z,69.28
2019-01-21T11:27:05.851Z,69.69
2019-01-21T11:28:19.617Z,69.19
2019-01-21T11:29:43.786Z,69.11
2019-01-21T11:30:58.405Z,69.40
2019-01-21T11:33:18.900Z,69.44
2019-01-21T11:35:02.923Z,69.57
2019-01-21T11:36:19.438Z,69.23
2019-01-21T11:37:43.883Z,69.42
2019-01-21T11:39:09.383Z,69.71
2019-01-21T11:40:25.608Z,68.94
2019-01-21T11:41:39.137Z,69.71
2019-01-21T11:43:01.909Z,69.56
2019-01-21T11:44:22.807Z,68.76
2019-01-21T11:46:38.783Z,68.96
2019-01-21T11:49:56.866Z,68.41
2019-01-21T11:52:11.622Z,66.65
2019-01-21T11:53:35.742Z,66.58
2019-01-21T11:55:54.186Z,66.79
2019-01-21T11:57:09.875Z,67.66
2019-01-21T11:59:40.353Z,68.10
2019-01-21T12:01:58.354Z,67.43
2019-01-21T12:03:15.953Z,67.84
2019-01-21T12:04:28.855Z,68.24
2019-01-21T12:05:47.648Z,68.90
2019-01-21T12:07:05.222Z,67.73
2019-01-21T12:10:27.056Z,68.60
2019-01-21T12:11:53.672Z,69.13
2019-01-21T12:13:08.702Z,67.39
2019-01-21T12:15:10.374Z,67.72
2019-01-21T12:16:33.670Z,69.32
2019-01-21T12:20:49.325Z,68.56
2019-01-21T12:22:05.602Z,69.25
2019-01-21T12:23:20.537Z,68.94
2019-01-21T12:24:35.102Z,69.48
2019-01-21T12:25:44.845Z,70.01
2019-01-21T12:27:40.997Z,69.55
2019-01-21T12:29:53.493Z,68.29
2019-01-21T12:31:07.034Z,69.08
2019-01-21T12:32:25.831Z,69.43
2019-01-21T12:33:39.163Z,69.22
2019-01-21T12:34:59.191Z,69.84
2019-01-21T12:36:08.444Z,69.88
2019-01-21T12:37:55.451Z,70.30
2019-01-21T12:39:23.951Z,69.74
2019-01-21T12:40:45.116Z,69.69
2019-01-21T12:42:10.491Z,69.71
2019-01-21T12:43:57.032Z,69.32
2019-01-21T12:45:11.811Z,69.87
2019-01-21T12:46:28.188Z,68.61
2019-01-21T12:47:43.898Z,68.47
2019-01-21T12:50:23.910Z,68.46
2019-01-21T12:51:50.525Z,68.21
2019-01-21T12:53:02.792Z,67.33
2019-01-21T12:54:27.973Z,68.76
2019-01-21T12:56:16.625Z,69.08
2019-01-21T12:57:31.898Z,68.21
2019-01-21T12:58:52.810Z,69.02
2019-01-21T13:01:10.481Z,68.97
2019-01-21T13:02:22.068Z,68.06
2019-01-21T13:03:56.541Z,67.95
2019-01-21T13:05:18.403Z,68.10
2019-01-21T13:08:35.221Z,68.49
2019-01-21T13:12:02.925Z,69.49
2019-01-21T13:13:54.495Z,69.36
2019-01-21T13:15:11.337Z,70.56
2019-01-21T13:16:30.147Z,67.84
2019-01-21T13:17:53.459Z,67.73
2019-01-21T13:19:26.077Z,68.19
2019-01-21T13:21:58.520Z,70.02
2019-01-21T13:24:18.684Z,70.94
2019-01-21T13:26:37.964Z,69.72
2019-01-21T13:28:01.102Z,70.89
2019-01-21T13:29:13.702Z,70.37
2019-01-21T13:30:28.213Z,70.88
2019-01-21T13:31:47.592Z,70.29
2019-01-21T13:33:21.646Z,70.63
2019-01-21T13:34:36.307Z,71.21
2019-01-21T13:35:55.225Z,71.13
2019-01-21T13:37:24.318Z,71.24
2019-01-21T13:39:49.301Z,70.94
2019-01-21T13:43:16.327Z,71.39
2019-01-21T13:44:33.135Z,70.48
2019-01-21T13:46:46.783Z,70.62
2019-01-21T13:49:13.658Z,70.47
2019-01-21T13:50:37.097Z,70.51
2019-01-21T13:52:07.737Z,70.69
2019-01-21T13:53:22.906Z,70.74
2019-01-21T13:54:36.459Z,71.00
2019-01-21T13:55:49.130Z,70.51
2019-01-21T13:57:03.192Z,70.44
2019-01-21T13:58:31.980Z,70.61
2019-01-21T13:59:47.659Z,70.61
2019-01-21T14:01:14.884Z,70.50
2019-01-21T14:02:34.746Z,70.46
2019-01-21T14:04:11.007Z,71.09
2019-01-21T14:05:31.013Z,70.23
2019-01-21T14:06:40.825Z,70.52
2019-01-21T14:07:57.203Z,70.08
2019-01-21T14:09:43.992Z,70.98
2019-01-21T14:12:09.001Z,71.14
2019-01-21T14:13:34.088Z,70.70
2019-01-21T14:14:50.449Z,70.63
2019-01-21T14:16:07.922Z,71.11
2019-01-21T14:19:56.306Z,69.78
2019-01-21T14:21:27.661Z,70.68
2019-01-21T14:25:01.391Z,70.04
2019-01-21T14:26:14.624Z,70.96
2019-01-21T14:27:35.912Z,70.28
2019-01-21T14:28:50.522Z,71.43
2019-01-21T14:30:05.541Z,71.38
2019-01-21T14:31:29.113Z,71.50
2019-01-21T14:32:49.735Z,69.82
2019-01-21T14:34:14.792Z,70.28
2019-01-21T14:36:00.475Z,69.69
2019-01-21T14:39:19.731Z,70.52
2019-01-21T14:40:32.424Z,71.68
2019-01-21T14:41:55.126Z,70.03
2019-01-21T14:43:12.857Z,69.65
2019-01-21T14:44:25.683Z,71.35
2019-01-21T14:45:41.787Z,71.54
2019-01-21T14:46:58.613Z,71.60
2019-01-21T14:48:20.737Z,72.76
2019-01-21T14:49:36.658Z,71.05
2019-01-21T14:52:59.738Z,71.07
2019-01-21T14:54:26.502Z,71.91
2019-01-21T14:56:02.125Z,71.53
2019-01-21T14:57:33.711Z,72.50
2019-01-21T14:58:55.346Z,72.57
2019-01-21T15:02:13.967Z,71.23
2019-01-21T15:04:01.726Z,71.79
2019-01-21T15:06:22.668Z,70.97
2019-01-21T15:07:35.925Z,72.21
2019-01-21T15:08:52.228Z,72.43
2019-01-21T15:10:35.437Z,73.64
2019-01-21T15:11:56.354Z,72.25
2019-01-21T15:13:24.155Z,72.32
2019-01-21T15:14:53.302Z,72.58
2019-01-21T15:16:40.788Z,73.03
2019-01-21T15:18:09.653Z,74.01
2019-01-21T15:19:28.121Z,74.07
2019-01-21T15:21:40.688Z,74.37
2019-01-21T15:22:57.929Z,73.49
2019-01-21T15:24:14.276Z,73.08
2019-01-21T15:25:35.120Z,73.15
2019-01-21T15:26:49.381Z,73.02
2019-01-21T15:28:06.602Z,71.76
2019-01-21T15:29:35.887Z,72.84
2019-01-21T15:32:23.314Z,73.24
2019-01-21T15:33:39.608Z,74.06
2019-01-21T15:34:58.165Z,73.83
2019-01-21T15:37:16.024Z,73.88
2019-01-21T15:38:36.387Z,74.49
2019-01-21T15:40:03.607Z,73.90
2019-01-21T15:41:28.133Z,73.58
2019-01-21T15:42:43.425Z,73.96
2019-01-21T15:44:03.230Z,74.46
2019-01-21T15:45:23.707Z,73.64
2019-01-21T15:46:50.156Z,73.95
2019-01-21T15:48:09.369Z,73.50
2019-01-21T15:49:32.307Z,73.90
2019-01-21T15:50:45.979Z,73.06
2019-01-21T15:51:59.426Z,73.44
2019-01-21T15:56:22.034Z,73.49
2019-01-21T15:57:43.775Z,73.28
2019-01-21T15:59:17.887Z,72.69
2019-01-21T16:02:37.210Z,73.27
2019-01-21T16:04:01.401Z,73.14
2019-01-21T16:05:23.116Z,72.35
2019-01-21T16:08:44.427Z,72.09
2019-01-21T16:10:38.275Z,70.81
2019-01-21T16:12:00.452Z,71.68
2019-01-21T16:13:16.712Z,72.74
2019-01-21T16:14:32.931Z,72.50
2019-01-21T16:17:51.500Z,72.90
2019-01-21T16:19:04.143Z,72.97
2019-01-21T16:21:21.100Z,72.43
2019-01-21T16:22:46.881Z,73.11
2019-01-21T16:26:20.879Z,72.31
2019-01-21T16:27:38.110Z,69.99
2019-01-21T16:28:58.052Z,70.10
2019-01-21T16:30:11.613Z,70.92
2019-01-21T16:31:28.296Z,70.95
2019-01-21T16:32:48.928Z,71.61
2019-01-21T16:34:04.108Z,71.16
2019-01-21T16:35:34.095Z,72.92
2019-01-21T16:37:05.537Z,73.77
2019-01-21T16:38:53.865Z,74.37
2019-01-21T16:40:14.595Z,74.80
2019-01-21T16:41:39.461Z,74.17
2019-01-21T16:42:43.958Z,75.07
2019-01-21T16:43:48.566Z,75.09
2019-01-21T16:44:52.958Z,74.46
2019-01-21T16:45:57.479Z,72.80
2019-01-21T16:47:01.884Z,73.02
2019-01-21T16:48:06.393Z,72.62
2019-01-21T16:49:10.954Z,72.17
2019-01-21T16:50:15.473Z,72.91
2019-01-21T16:51:20.368Z,72.51
2019-01-21T16:52:24.771Z,72.25
2019-01-21T16:53:29.173Z,73.30
2019-01-21T16:54:33.617Z,72.98
2019-01-21T16:55:37.935Z,73.98
2019-01-21T16:56:42.223Z,73.62
2019-01-21T16:57:46.672Z,73.93
2019-01-21T16:58:51.151Z,72.91
2019-01-21T16:59:55.660Z,73.70
2019-01-21T17:01:00.214Z,74.36
2019-01-21T17:02:04.753Z,72.95
2019-01-21T17:03:09.351Z,73.87
2019-01-21T17:04:13.728Z,73.98
2019-01-21T17:05:18.469Z,73.90
2019-01-21T17:06:23.223Z,74.13
2019-01-21T17:07:27.999Z,74.50
2019-01-21T17:08:32.420Z,74.24
2019-01-21T17:09:36.996Z,75.01
2019-01-21T17:10:41.759Z,75.66
2019-01-21T17:11:46.504Z,75.47
2019-01-21T17:12:50.838Z,75.50
2019-01-21T17:13:55.569Z,76.02
2019-01-21T17:15:00.419Z,74.96
2019-01-21T17:16:05.257Z,74.77
2019-01-21T17:18:14.651Z,74.62
2019-01-21T17:19:19.617Z,74.72
2019-01-21T17:20:24.198Z,75.55
2019-01-21T17:21:28.526Z,75.60
2019-01-21T17:22:33.138Z,74.99
2019-01-21T17:23:37.327Z,75.48
2019-01-21T17:24:41.667Z,75.05
2019-01-21T17:25:45.852Z,75.05
2019-01-21T17:26:50.239Z,74.23
2019-01-21T17:27:54.596Z,75.08
2019-01-21T17:28:58.915Z,74.74
2019-01-21T17:30:03.207Z,74.82
2019-01-21T17:31:07.831Z,74.76
2019-01-21T17:32:12.578Z,74.37
2019-01-21T17:33:17.106Z,74.39
2019-01-21T17:34:21.663Z,73.80
2019-01-21T17:35:26.464Z,74.00
2019-01-21T17:36:30.983Z,74.17
2019-01-21T17:37:35.871Z,74.53
2019-01-21T17:38:40.180Z,74.54
2019-01-21T17:39:44.602Z,74.50
2019-01-21T17:40:48.885Z,73.80
2019-01-21T17:41:53.327Z,74.43
2019-01-21T17:42:58.134Z,74.30
2019-01-21T17:44:02.597Z,73.77
2019-01-21T17:45:10.040Z,73.71
2019-01-21T17:46:14.627Z,73.84
2019-01-21T17:47:19.061Z,73.73
2019-01-21T17:48:23.975Z,73.54
2019-01-21T17:49:28.574Z,74.29
2019-01-21T17:50:32.851Z,73.89
2019-01-21T17:51:37.440Z,73.91
2019-01-21T17:52:41.772Z,73.69
2019-01-21T17:53:51.294Z,73.37
2019-01-21T17:54:50.716Z,73.39
2019-01-21T17:55:55.426Z,73.26
2019-01-21T17:57:00.026Z,73.73
2019-01-21T17:58:04.317Z,73.51
2019-01-21T17:59:08.793Z,73.19
2019-01-21T18:00:15.385Z,74.05
2019-01-21T18:01:19.780Z,73.64
2019-01-21T18:02:24.573Z,73.51
2019-01-21T18:03:29.235Z,73.34
2019-01-21T18:04:33.649Z,73.20
2019-01-21T18:05:38.024Z,72.83
2019-01-21T18:06:42.251Z,73.55
2019-01-21T18:07:46.552Z,73.00
2019-01-21T18:08:51.064Z,73.37
2019-01-21T18:09:55.303Z,73.15
2019-01-21T18:10:59.563Z,73.23
2019-01-21T18:12:03.858Z,72.88
2019-01-21T18:13:08.286Z,73.38
2019-01-21T18:14:12.520Z,72.45
2019-01-21T18:15:17.115Z,72.21
2019-01-21T18:16:21.782Z,72.15
2019-01-21T18:17:26.217Z,72.57
2019-01-21T18:18:30.593Z,72.79
2019-01-21T18:19:35.107Z,73.19
2019-01-21T18:20:39.855Z,73.25
2019-01-21T18:21:44.288Z,73.50
2019-01-21T18:22:48.758Z,73.93
2019-01-21T18:23:53.115Z,73.22
2019-01-21T18:24:57.423Z,72.99
2019-01-21T18:26:02.205Z,73.25
2019-01-21T18:27:06.926Z,73.89
2019-01-21T18:28:11.395Z,73.56
2019-01-21T18:29:15.843Z,73.82
2019-01-21T18:30:22.843Z,73.38
2019-01-21T18:31:27.361Z,73.87
2019-01-21T18:32:31.997Z,73.95
2019-01-21T18:33:36.405Z,73.27
2019-01-21T18:34:40.961Z,73.06
2019-01-21T18:35:45.217Z,73.79
2019-01-21T18:36:49.786Z,74.32
2019-01-21T18:37:54.216Z,74.20
2019-01-21T18:38:58.786Z,73.66
2019-01-21T18:40:03.560Z,73.63
2019-01-21T18:41:07.947Z,74.07
2019-01-21T18:42:12.751Z,73.57
2019-01-21T18:43:17.391Z,73.54
2019-01-21T18:44:21.880Z,73.79
2019-01-21T18:45:27.775Z,73.88
2019-01-21T18:46:32.186Z,74.40
2019-01-21T18:47:36.715Z,73.98
2019-01-21T18:48:41.026Z,74.25
2019-01-21T18:49:45.335Z,73.58
2019-01-21T18:50:50.047Z,73.58
2019-01-21T18:51:54.791Z,74.20
2019-01-21T18:53:05.746Z,74.42
2019-01-21T18:54:10.219Z,73.88
2019-01-21T18:55:14.709Z,73.77
2019-01-21T18:56:19.201Z,74.02
2019-01-21T18:57:23.551Z,74.50
2019-01-21T18:58:28.066Z,74.10
2019-01-21T18:59:32.678Z,73.83
2019-01-21T19:00:36.908Z,74.26
2019-01-21T19:01:41.217Z,74.07
2019-01-21T19:02:45.565Z,74.16
2019-01-21T19:03:49.848Z,74.07
2019-01-21T19:04:54.213Z,74.04
2019-01-21T19:05:58.432Z,73.91
2019-01-21T19:07:02.853Z,73.42
2019-01-21T19:08:07.109Z,73.90
2019-01-21T19:09:11.952Z,73.72
2019-01-21T19:10:16.420Z,73.51
2019-01-21T19:11:21.171Z,73.83
2019-01-21T19:12:25.999Z,73.95
2019-01-21T19:13:30.635Z,73.68
2019-01-21T19:14:35.123Z,73.57
2019-01-21T19:15:39.625Z,73.89
2019-01-21T19:16:44.008Z,72.84
2019-01-21T19:17:48.494Z,73.58
2019-01-21T19:18:52.805Z,73.04
2019-01-21T19:19:57.419Z,73.44
2019-01-21T19:21:01.931Z,72.69
2019-01-21T19:22:06.219Z,73.25
2019-01-21T19:23:10.649Z,72.92
2019-01-21T19:24:15.254Z,73.52
2019-01-21T19:25:19.850Z,73.88
2019-01-21T19:26:24.222Z,73.66
2019-01-21T19:27:28.616Z,73.62
2019-01-21T19:28:32.926Z,74.00
2019-01-21T19:29:37.426Z,73.62
2019-01-21T19:30:41.823Z,73.99
2019-01-21T19:31:46.382Z,73.61
2019-01-21T19:32:50.758Z,73.68
2019-01-21T19:33:55.144Z,73.78
2019-01-21T19:34:59.707Z,73.03
2019-01-21T19:36:04.096Z,73.63
2019-01-21T19:37:08.630Z,73.70
2019-01-21T19:38:13.205Z,73.76
2019-01-21T19:39:17.683Z,73.26
2019-01-21T19:40:22.510Z,72.52
2019-01-21T19:41:26.951Z,72.47
2019-01-21T19:42:31.458Z,73.12
2019-01-21T19:43:36.039Z,73.09
2019-01-21T19:44:40.302Z,73.76
2019-01-21T19:45:44.729Z,73.80
2019-01-21T19:46:48.996Z,73.87
2019-01-21T19:47:53.449Z,73.19